Delevan, New York
Current Conditions -  °F | °C
As of 4:35 AM on Sunday 26 Oct 2014 (Local Time) from KOLE Reporting Station
Clear Clear  
Wind Chill: 35°   Ceiling: Unl
Heat Index: 41°   Visibility: 10mi
Dew Point: 41°   Wind: 9mph
Humidity: 100%   Direction: 290°WNW
Pressure: 29.68"   Gusts: 17mph
Location:  42.49°N, 78.48°W
Report Text: KOLE 260835Z AUTO 29008G15KT 210V310 10SM CLR 05/05 A2968 RMK AO2
Loading
Personal Weather Stations






























Interactive Weather Map
Tropical Storm Tracking
New forecast layout! Learn more

10-Day Weather Forecast

Advertisements
Track Severe Weather on mobile